createdAt,value
2022-08-05T00:13:53.432Z,40
2022-08-05T00:42:33.044Z,41
2022-08-05T01:11:37.131Z,40
2022-08-05T01:40:18.294Z,42
2022-08-05T02:09:07.821Z,42
2022-08-05T02:38:35.893Z,43
2022-08-05T03:07:40.844Z,45
2022-08-05T03:36:12.506Z,47
2022-08-05T04:04:58.585Z,45
2022-08-05T04:34:33.226Z,47
2022-08-05T05:03:07.099Z,47
2022-08-05T05:32:21.508Z,46
2022-08-05T06:01:39.611Z,47
2022-08-05T06:30:27.424Z,48
2022-08-05T06:59:15.367Z,47
2022-08-05T07:28:28.377Z,46
2022-08-05T07:58:04.146Z,44
2022-08-05T08:26:45.495Z,42
2022-08-05T08:56:08.557Z,41
2022-08-05T09:26:00.697Z,39
2022-08-05T09:54:14.874Z,38
2022-08-05T10:23:34.924Z,38
2022-08-05T10:52:13.489Z,37
2022-08-05T11:21:50.035Z,36
2022-08-05T11:50:46.411Z,35
2022-08-05T12:20:27.351Z,30
2022-08-05T12:49:00.744Z,32
2022-08-05T13:18:24.477Z,33
2022-08-05T13:48:08.412Z,35
2022-08-05T14:16:27.799Z,35
2022-08-05T14:45:53.938Z,37
2022-08-05T15:15:16.126Z,35
2022-08-05T15:43:58.566Z,37
2022-08-05T16:13:05.309Z,38
2022-08-05T16:42:30.878Z,40
2022-08-05T17:11:26.217Z,41
2022-08-05T17:40:23.239Z,42
2022-08-05T18:09:59.198Z,41
2022-08-05T18:38:36.494Z,42
2022-08-05T19:07:47.159Z,45
2022-08-05T19:36:42.822Z,46
2022-08-05T20:05:51.812Z,47
2022-08-05T20:34:29.465Z,45
2022-08-05T21:03:49.103Z,47
2022-08-05T21:32:57.804Z,49
2022-08-05T22:02:28.030Z,49
2022-08-05T22:31:45.233Z,48
2022-08-05T23:00:27.508Z,48
2022-08-05T23:29:34.891Z,49
2022-08-05T23:58:32.745Z,50
